Time;durP1;ratioP1;P1;durP2;ratioP2;P2;SDS_P1;SDS_P2;PMS_P1;PMS_P2;Temp;Humidity;BMP_temperature;BMP_pressure;BME280_temperature;BME280_humidity;BME280_pressure;Samples;Min_cycle;Max_cycle;Signal;HPM_P1;HPM_P2
2022/07/29 00:00:40;;;;;;;;;8.00;8.00;;;;;;;;5011586;28;52285;-64
2022/07/29 00:03:05;;;;;;;;;10.00;10.00;;;;;;;;5011213;28;51174;-64
2022/07/29 00:05:30;;;;;;;;;9.00;9.00;;;;;;;;5007858;28;52506;-64
2022/07/29 00:07:56;;;;;;;;;7.00;7.00;;;;;;;;5011291;28;51519;-64
2022/07/29 00:10:21;;;;;;;;;8.00;7.00;;;;;;;;5011446;28;52441;-64
2022/07/29 00:12:46;;;;;;;;;8.67;8.67;;;;;;;;5011033;28;51114;-64
2022/07/29 00:15:11;;;;;;;;;6.00;6.00;;;;;;;;5010631;28;51906;-64
2022/07/29 00:17:37;;;;;;;;;8.00;8.00;;;;;;;;5010893;28;51159;-64
2022/07/29 00:20:03;;;;;;;;;8.67;8.00;;;;;;;;5011125;28;52434;-64
2022/07/29 00:22:28;;;;;;;;;6.33;6.33;;;;;;;;5012532;28;51351;-64
2022/07/29 00:24:53;;;;;;;;;7.00;6.00;;;;;;;;5012123;28;51220;-64
2022/07/29 00:27:18;;;;;;;;;6.67;6.67;;;;;;;;5011489;28;51262;-64
2022/07/29 00:29:44;;;;;;;;;7.00;7.00;;;;;;;;5012074;28;51137;-64
2022/07/29 00:32:09;;;;;;;;;8.00;8.00;;;;;;;;5011928;28;51097;-64
2022/07/29 00:37:18;;;;;;;;;6.67;6.67;;;;;;;;5012285;28;51051;-64
2022/07/29 00:39:43;;;;;;;;;8.00;8.00;;;;;;;;5009453;28;51394;-63
2022/07/29 00:42:09;;;;;;;;;8.00;7.33;;;;;;;;5012960;28;51207;-64
2022/07/29 00:44:38;;;;;;;;;6.00;6.00;;;;;;;;5011578;28;52643;-64
2022/07/29 00:47:03;;;;;;;;;8.00;7.00;;;;;;;;5010983;28;51232;-64
2022/07/29 00:49:28;;;;;;;;;8.33;8.33;;;;;;;;5007908;28;51184;-64
2022/07/29 00:51:54;;;;;;;;;7.00;7.00;;;;;;;;5010506;28;51167;-64
2022/07/29 00:54:19;;;;;;;;;9.00;9.00;;;;;;;;5009158;28;52332;-64
2022/07/29 00:56:44;;;;;;;;;7.33;7.00;;;;;;;;5011894;28;52491;-64
2022/07/29 00:59:09;;;;;;;;;6.00;6.00;;;;;;;;5013332;28;51268;-64
2022/07/29 01:01:34;;;;;;;;;8.67;7.33;;;;;;;;5010760;28;51266;-64
2022/07/29 01:04:00;;;;;;;;;7.33;7.33;;;;;;;;5009840;28;52113;-64
2022/07/29 01:06:26;;;;;;;;;8.75;7.50;;;;;;;;5010971;28;51204;-64
2022/07/29 01:08:51;;;;;;;;;8.67;8.33;;;;;;;;5009962;28;51117;-63
2022/07/29 01:11:17;;;;;;;;;7.00;7.00;;;;;;;;5010847;28;51116;-65
2022/07/29 01:13:43;;;;;;;;;8.33;8.00;;;;;;;;5010447;28;53242;-64
2022/07/29 01:16:15;;;;;;;;;6.67;6.67;;;;;;;;5009813;28;51223;-64
2022/07/29 01:18:44;;;;;;;;;10.33;9.67;;;;;;;;5011111;28;51222;-63
2022/07/29 01:21:27;;;;;;;;;7.67;7.67;;;;;;;;5011940;28;51292;-63
2022/07/29 01:23:56;;;;;;;;;8.00;7.33;;;;;;;;5007157;28;51831;-63
2022/07/29 01:26:21;;;;;;;;;7.00;7.00;;;;;;;;5010133;28;51386;-64
2022/07/29 01:28:46;;;;;;;;;9.00;9.00;;;;;;;;5010552;28;51306;-64
2022/07/29 01:31:15;;;;;;;;;8.00;8.00;;;;;;;;5010490;28;51158;-64
2022/07/29 01:33:48;;;;;;;;;8.67;7.67;;;;;;;;5009954;28;51874;-65
2022/07/29 01:36:35;;;;;;;;;7.67;7.67;;;;;;;;5008796;28;51195;-64
2022/07/29 01:39:09;;;;;;;;;8.25;8.00;;;;;;;;5010175;28;51291;-64
2022/07/29 01:41:36;;;;;;;;;7.00;7.00;;;;;;;;5009860;28;51332;-64
2022/07/29 01:44:07;;;;;;;;;8.00;7.67;;;;;;;;5008560;28;52765;-64
2022/07/29 01:46:38;;;;;;;;;8.67;8.33;;;;;;;;5009645;28;51105;-64
2022/07/29 01:49:09;;;;;;;;;7.33;7.00;;;;;;;;5009746;28;51142;-64
2022/07/29 01:51:47;;;;;;;;;8.33;8.33;;;;;;;;5009233;28;52427;-64
2022/07/29 01:54:18;;;;;;;;;9.33;9.00;;;;;;;;5009068;28;51261;-64
2022/07/29 01:56:44;;;;;;;;;7.00;7.00;;;;;;;;5009724;28;52502;-64
2022/07/29 01:59:10;;;;;;;;;8.00;8.00;;;;;;;;5010567;28;51269;-64
2022/07/29 02:01:37;;;;;;;;;7.67;7.67;;;;;;;;5008313;28;51214;-64
2022/07/29 02:04:03;;;;;;;;;7.00;6.33;;;;;;;;5009806;28;51261;-65
2022/07/29 02:06:29;;;;;;;;;6.00;6.00;;;;;;;;5009540;28;52646;-65
2022/07/29 02:08:55;;;;;;;;;9.00;9.00;;;;;;;;5009927;28;52520;-65
2022/07/29 02:11:21;;;;;;;;;8.33;8.33;;;;;;;;5010132;28;51332;-65
2022/07/29 02:13:47;;;;;;;;;6.00;6.00;;;;;;;;5009149;28;51113;-65
2022/07/29 02:16:13;;;;;;;;;6.00;6.00;;;;;;;;5010227;28;51264;-65
2022/07/29 02:18:40;;;;;;;;;7.00;6.00;;;;;;;;5008614;28;51184;-64
2022/07/29 02:21:07;;;;;;;;;9.00;8.00;;;;;;;;5010142;28;51220;-63
2022/07/29 02:23:35;;;;;;;;;6.00;6.00;;;;;;;;5006587;28;54011;-65
2022/07/29 02:26:01;;;;;;;;;8.33;7.67;;;;;;;;5006577;28;51133;-63
2022/07/29 02:28:28;;;;;;;;;7.00;7.00;;;;;;;;5006579;28;51457;-64
2022/07/29 02:30:55;;;;;;;;;8.00;8.00;;;;;;;;5009137;28;51099;-64
2022/07/29 02:33:21;;;;;;;;;7.00;7.00;;;;;;;;5008765;28;52947;-63
2022/07/29 02:35:47;;;;;;;;;7.67;7.00;;;;;;;;5009350;28;51150;-65
2022/07/29 02:40:58;;;;;;;;;6.00;6.00;;;;;;;;5009516;28;51221;-64
2022/07/29 02:43:24;;;;;;;;;8.67;8.00;;;;;;;;5009280;28;51187;-65
2022/07/29 02:45:51;;;;;;;;;8.33;8.33;;;;;;;;5009762;28;51067;-63
2022/07/29 02:48:18;;;;;;;;;8.33;6.67;;;;;;;;5009508;28;52381;-63
2022/07/29 02:50:48;;;;;;;;;9.00;8.00;;;;;;;;5009079;28;51412;-64
2022/07/29 02:53:13;;;;;;;;;7.67;7.67;;;;;;;;5008421;28;51939;-63
2022/07/29 02:55:50;;;;;;;;;9.00;8.33;;;;;;;;5007809;28;52416;-63
2022/07/29 02:58:28;;;;;;;;;7.33;6.33;;;;;;;;5008576;28;51177;-63
2022/07/29 03:00:55;;;;;;;;;9.00;8.33;;;;;;;;5008115;28;51213;-62
2022/07/29 03:03:21;;;;;;;;;7.33;7.00;;;;;;;;5005975;28;53090;-63
2022/07/29 03:05:46;;;;;;;;;8.00;8.00;;;;;;;;5008673;28;51242;-64
2022/07/29 03:08:12;;;;;;;;;6.33;6.33;;;;;;;;5008512;28;52363;-64
2022/07/29 03:10:43;;;;;;;;;6.00;6.00;;;;;;;;5009088;28;51274;-62
2022/07/29 03:13:09;;;;;;;;;5.00;5.00;;;;;;;;5008212;28;51916;-63
2022/07/29 03:15:34;;;;;;;;;7.00;7.00;;;;;;;;5007879;28;51217;-63
2022/07/29 03:18:00;;;;;;;;;7.00;7.00;;;;;;;;5008385;28;51160;-63
2022/07/29 03:20:26;;;;;;;;;8.00;7.00;;;;;;;;5008854;28;51379;-64
2022/07/29 03:22:52;;;;;;;;;5.67;5.67;;;;;;;;5007555;28;53028;-63
2022/07/29 03:25:18;;;;;;;;;6.00;5.00;;;;;;;;5008503;28;52618;-63
2022/07/29 03:27:44;;;;;;;;;8.33;8.33;;;;;;;;5008153;28;51369;-63
2022/07/29 03:30:09;;;;;;;;;6.67;6.67;;;;;;;;5009059;28;51289;-63
2022/07/29 03:32:35;;;;;;;;;4.67;4.00;;;;;;;;5008028;28;52523;-63
2022/07/29 03:35:00;;;;;;;;;6.67;6.00;;;;;;;;5008064;28;51202;-63
2022/07/29 03:37:26;;;;;;;;;8.00;7.00;;;;;;;;5005879;28;51376;-63
2022/07/29 03:39:52;;;;;;;;;8.00;7.67;;;;;;;;5006368;28;51264;-63
2022/07/29 03:42:19;;;;;;;;;8.00;7.67;;;;;;;;5008301;28;51152;-63
2022/07/29 03:44:46;;;;;;;;;8.00;8.00;;;;;;;;5008334;28;51135;-63
2022/07/29 03:47:13;;;;;;;;;7.00;7.00;;;;;;;;5008281;28;51236;-64
2022/07/29 03:49:40;;;;;;;;;6.33;5.67;;;;;;;;5008939;28;51176;-65
2022/07/29 03:52:05;;;;;;;;;7.00;7.00;;;;;;;;5008515;28;51862;-64
2022/07/29 03:54:31;;;;;;;;;10.00;8.67;;;;;;;;5008636;28;51179;-65
2022/07/29 03:56:59;;;;;;;;;7.67;7.67;;;;;;;;5006799;28;52324;-64
2022/07/29 03:59:25;;;;;;;;;8.00;8.00;;;;;;;;5011324;28;51286;-64
2022/07/29 04:01:50;;;;;;;;;7.67;7.33;;;;;;;;5012182;28;52312;-64
2022/07/29 04:04:15;;;;;;;;;9.67;8.00;;;;;;;;5012266;28;51125;-64
2022/07/29 04:06:41;;;;;;;;;8.67;8.67;;;;;;;;5012037;28;51111;-64
2022/07/29 04:09:07;;;;;;;;;10.67;10.00;;;;;;;;5010295;28;51205;-64
2022/07/29 04:11:32;;;;;;;;;11.00;10.33;;;;;;;;5012383;28;52069;-64
2022/07/29 04:13:57;;;;;;;;;10.00;10.00;;;;;;;;5011872;28;52391;-64
2022/07/29 04:16:22;;;;;;;;;9.33;9.00;;;;;;;;5011117;28;51080;-64
2022/07/29 04:18:48;;;;;;;;;7.00;7.00;;;;;;;;5011528;28;51078;-63
2022/07/29 04:21:13;;;;;;;;;11.67;8.67;;;;;;;;5011838;28;51253;-63
2022/07/29 04:23:38;;;;;;;;;12.00;10.00;;;;;;;;5011246;28;51192;-63
2022/07/29 04:26:03;;;;;;;;;10.00;9.00;;;;;;;;5011889;28;51251;-63
2022/07/29 04:28:28;;;;;;;;;10.00;9.00;;;;;;;;5012482;28;51457;-64
2022/07/29 04:30:54;;;;;;;;;9.33;9.33;;;;;;;;5011411;28;52339;-64
2022/07/29 04:33:19;;;;;;;;;9.00;9.00;;;;;;;;5012022;28;51079;-64
2022/07/29 04:35:44;;;;;;;;;10.00;10.00;;;;;;;;5013696;28;51090;-63
2022/07/29 04:38:09;;;;;;;;;8.00;7.67;;;;;;;;5011650;28;52092;-63
2022/07/29 04:40:34;;;;;;;;;10.00;10.00;;;;;;;;5011060;28;52041;-63
2022/07/29 04:43:00;;;;;;;;;9.67;9.67;;;;;;;;5011252;28;51217;-63
2022/07/29 04:45:26;;;;;;;;;10.00;9.33;;;;;;;;5011195;28;52273;-64
2022/07/29 04:47:51;;;;;;;;;10.00;9.00;;;;;;;;5011712;28;51084;-63
2022/07/29 04:50:16;;;;;;;;;10.33;10.33;;;;;;;;5011561;28;51267;-63
2022/07/29 04:52:41;;;;;;;;;11.00;9.67;;;;;;;;5010812;28;51412;-63
2022/07/29 04:55:07;;;;;;;;;10.33;10.00;;;;;;;;5011572;28;51158;-63
2022/07/29 04:57:32;;;;;;;;;8.33;8.33;;;;;;;;5012615;28;51107;-64
2022/07/29 04:59:57;;;;;;;;;9.33;9.33;;;;;;;;5010992;28;52544;-63
2022/07/29 05:02:23;;;;;;;;;14.67;14.67;;;;;;;;5011437;28;51144;-63
2022/07/29 05:04:48;;;;;;;;;11.67;11.00;;;;;;;;5009510;28;51348;-65
2022/07/29 05:07:14;;;;;;;;;11.00;11.00;;;;;;;;4997176;28;51095;-64
2022/07/29 05:09:39;;;;;;;;;9.67;9.67;;;;;;;;4981962;28;52597;-64
2022/07/29 05:12:04;;;;;;;;;9.33;9.00;;;;;;;;4999922;28;51896;-63
2022/07/29 05:14:30;;;;;;;;;9.33;9.33;;;;;;;;5010531;28;51475;-63
2022/07/29 05:16:56;;;;;;;;;11.00;10.67;;;;;;;;5010429;28;51126;-63
2022/07/29 05:19:22;;;;;;;;;9.33;9.00;;;;;;;;5010099;28;51153;-63
2022/07/29 05:21:47;;;;;;;;;10.00;9.00;;;;;;;;5010173;28;51118;-63
2022/07/29 05:24:12;;;;;;;;;10.00;8.67;;;;;;;;5011757;28;51144;-63
2022/07/29 05:26:38;;;;;;;;;9.00;8.00;;;;;;;;5011396;28;52261;-63
2022/07/29 05:29:03;;;;;;;;;10.00;9.33;;;;;;;;5011058;28;52871;-63
2022/07/29 05:31:29;;;;;;;;;9.33;9.33;;;;;;;;5011284;28;51095;-63
2022/07/29 05:33:54;;;;;;;;;10.67;10.33;;;;;;;;5010763;28;52411;-63
2022/07/29 05:36:19;;;;;;;;;9.33;9.33;;;;;;;;5011764;28;51077;-63
2022/07/29 05:38:44;;;;;;;;;9.67;9.00;;;;;;;;5011156;28;51221;-63
2022/07/29 05:41:10;;;;;;;;;10.67;10.67;;;;;;;;5012646;28;51080;-64
2022/07/29 05:43:35;;;;;;;;;8.00;8.00;;;;;;;;5012856;28;52477;-63
2022/07/29 05:46:00;;;;;;;;;9.00;8.00;;;;;;;;5012299;28;51174;-63
2022/07/29 05:48:25;;;;;;;;;9.00;8.33;;;;;;;;5012021;28;51125;-63
2022/07/29 05:50:51;;;;;;;;;8.33;8.33;;;;;;;;5007501;28;51404;-65
2022/07/29 05:53:16;;;;;;;;;9.00;8.33;;;;;;;;5010621;28;51190;-64
2022/07/29 05:55:41;;;;;;;;;7.33;7.33;;;;;;;;5011120;28;51181;-64
2022/07/29 05:58:06;;;;;;;;;6.33;6.33;;;;;;;;5001169;28;51790;-63
2022/07/29 06:00:31;;;;;;;;;8.33;7.00;;;;;;;;4994572;28;51103;-64
2022/07/29 06:02:57;;;;;;;;;9.33;9.33;;;;;;;;4994689;28;51264;-63
2022/07/29 06:05:22;;;;;;;;;9.00;9.00;;;;;;;;4994743;28;51184;-64
2022/07/29 06:07:48;;;;;;;;;8.67;8.67;;;;;;;;4994934;28;52072;-63
2022/07/29 06:10:13;;;;;;;;;8.33;8.33;;;;;;;;4993739;28;51161;-64
2022/07/29 06:12:38;;;;;;;;;8.00;7.00;;;;;;;;4992318;28;51284;-65
2022/07/29 06:15:04;;;;;;;;;10.00;10.00;;;;;;;;5004113;28;51468;-64
2022/07/29 06:17:29;;;;;;;;;8.00;8.00;;;;;;;;5006415;28;52313;-64
2022/07/29 06:19:54;;;;;;;;;9.00;9.00;;;;;;;;5010533;28;51144;-64
2022/07/29 06:22:19;;;;;;;;;8.00;8.00;;;;;;;;5011051;28;51215;-64
2022/07/29 06:24:45;;;;;;;;;10.00;8.33;;;;;;;;5008138;28;51474;-64
2022/07/29 06:27:10;;;;;;;;;10.00;9.67;;;;;;;;5002031;28;52153;-64
2022/07/29 06:29:36;;;;;;;;;9.67;9.00;;;;;;;;4995080;28;51120;-64
2022/07/29 06:32:02;;;;;;;;;11.00;9.00;;;;;;;;5003055;28;51413;-64
2022/07/29 06:34:27;;;;;;;;;12.33;12.00;;;;;;;;5009896;28;51063;-64
2022/07/29 06:36:52;;;;;;;;;10.67;10.33;;;;;;;;5008883;28;52513;-64
2022/07/29 06:39:18;;;;;;;;;11.33;10.33;;;;;;;;5008473;28;51211;-64
2022/07/29 06:41:46;;;;;;;;;11.67;10.00;;;;;;;;5009269;28;51262;-64
2022/07/29 06:44:11;;;;;;;;;10.00;10.00;;;;;;;;5010200;28;51104;-64
2022/07/29 06:46:36;;;;;;;;;11.00;10.33;;;;;;;;5010369;28;52189;-64
2022/07/29 06:49:02;;;;;;;;;12.00;12.00;;;;;;;;5009486;28;51310;-64
2022/07/29 06:51:27;;;;;;;;;11.33;11.00;;;;;;;;5009988;28;51669;-64
2022/07/29 06:53:57;;;;;;;;;10.33;10.33;;;;;;;;5009657;28;51419;-65
2022/07/29 06:56:22;;;;;;;;;11.33;10.67;;;;;;;;5010408;28;51386;-64
2022/07/29 06:58:47;;;;;;;;;9.33;9.33;;;;;;;;5010362;28;51621;-65
2022/07/29 07:01:12;;;;;;;;;9.33;9.33;;;;;;;;5009781;28;51349;-65
2022/07/29 07:03:38;;;;;;;;;11.00;11.00;;;;;;;;5010171;28;51054;-64
2022/07/29 07:06:03;;;;;;;;;12.33;12.00;;;;;;;;5003702;28;52594;-64
2022/07/29 07:08:28;;;;;;;;;9.67;9.67;;;;;;;;5005781;28;51145;-64
2022/07/29 07:10:54;;;;;;;;;8.00;8.00;;;;;;;;5006990;28;51097;-66
2022/07/29 07:13:20;;;;;;;;;8.33;8.00;;;;;;;;5006957;28;52298;-63
2022/07/29 07:15:48;;;;;;;;;11.00;11.00;;;;;;;;5007256;28;51786;-65
2022/07/29 07:18:13;;;;;;;;;10.33;9.33;;;;;;;;5006982;28;51164;-63
2022/07/29 07:20:38;;;;;;;;;11.33;11.33;;;;;;;;5007274;28;52348;-64
2022/07/29 07:23:04;;;;;;;;;10.00;9.33;;;;;;;;5006891;28;51107;-63
2022/07/29 07:25:29;;;;;;;;;9.00;8.00;;;;;;;;5006569;28;52183;-64
2022/07/29 07:27:55;;;;;;;;;9.67;9.00;;;;;;;;5008131;28;51382;-64
2022/07/29 07:30:21;;;;;;;;;8.33;8.33;;;;;;;;5008430;28;51192;-66
2022/07/29 07:32:46;;;;;;;;;9.67;9.33;;;;;;;;4989793;28;51369;-64
2022/07/29 07:35:11;;;;;;;;;10.00;9.33;;;;;;;;5009557;28;52455;-65
2022/07/29 07:37:37;;;;;;;;;7.00;7.00;;;;;;;;5010075;28;51237;-63
2022/07/29 07:40:03;;;;;;;;;7.67;7.67;;;;;;;;5010530;28;51145;-65
2022/07/29 07:42:28;;;;;;;;;11.00;9.33;;;;;;;;5009436;28;51498;-65
2022/07/29 07:44:54;;;;;;;;;9.33;9.33;;;;;;;;5010405;28;51311;-65
2022/07/29 07:47:23;;;;;;;;;9.33;8.33;;;;;;;;5010259;28;51114;-64
2022/07/29 07:49:51;;;;;;;;;8.67;8.67;;;;;;;;5012268;28;52004;-65
2022/07/29 07:52:17;;;;;;;;;8.67;8.67;;;;;;;;5012545;28;51397;-64
2022/07/29 07:54:44;;;;;;;;;9.00;9.00;;;;;;;;5012856;28;52324;-64
2022/07/29 07:57:10;;;;;;;;;7.67;7.67;;;;;;;;5013447;28;51107;-65
2022/07/29 07:59:35;;;;;;;;;10.33;9.67;;;;;;;;5014947;28;51203;-64
2022/07/29 08:02:00;;;;;;;;;8.33;8.33;;;;;;;;5013507;28;51450;-64
2022/07/29 08:04:26;;;;;;;;;9.00;9.00;;;;;;;;5010755;28;51414;-64
2022/07/29 08:06:53;;;;;;;;;10.33;9.67;;;;;;;;4979757;28;52491;-64
2022/07/29 08:09:19;;;;;;;;;16.50;15.50;;;;;;;;4999576;28;51479;-62
2022/07/29 08:11:44;;;;;;;;;8.33;8.33;;;;;;;;4981658;28;51158;-66
2022/07/29 08:14:09;;;;;;;;;6.33;6.33;;;;;;;;4997294;28;52410;-65
2022/07/29 08:16:34;;;;;;;;;7.00;6.67;;;;;;;;4999506;28;51330;-64
2022/07/29 08:18:59;;;;;;;;;10.00;10.00;;;;;;;;4999279;28;51266;-64
2022/07/29 08:21:25;;;;;;;;;7.33;6.67;;;;;;;;4980962;28;51640;-65
2022/07/29 08:24:42;;;;;;;;;6.33;6.00;;;;;;;;4996224;28;51198;-65
2022/07/29 08:26:40;;;;;;;;;4.67;4.67;;;;;;;;4998678;28;51198;-64
2022/07/29 08:29:05;;;;;;;;;7.00;6.33;;;;;;;;4997331;28;51317;-65
2022/07/29 08:31:30;;;;;;;;;7.00;7.00;;;;;;;;4997728;28;51235;-61
2022/07/29 08:33:56;;;;;;;;;7.00;7.00;;;;;;;;4996982;28;52481;-60
2022/07/29 08:36:21;;;;;;;;;6.00;6.00;;;;;;;;4998119;28;52593;-62
2022/07/29 08:38:46;;;;;;;;;5.00;5.00;;;;;;;;4997299;28;51107;-62
2022/07/29 08:41:11;;;;;;;;;5.67;5.67;;;;;;;;4996241;28;52535;-62
2022/07/29 08:43:37;;;;;;;;;5.00;5.00;;;;;;;;4996197;28;51783;-62
2022/07/29 08:46:03;;;;;;;;;5.00;5.00;;;;;;;;4977620;28;51203;-62
2022/07/29 08:48:29;;;;;;;;;5.33;5.33;;;;;;;;4998173;28;51134;-62
2022/07/29 08:50:55;;;;;;;;;4.00;4.00;;;;;;;;4997584;28;51050;-61
2022/07/29 08:53:21;;;;;;;;;4.67;4.33;;;;;;;;4990142;28;52330;-62
2022/07/29 08:55:47;;;;;;;;;6.00;5.00;;;;;;;;4997051;28;51078;-62
2022/07/29 08:58:13;;;;;;;;;5.00;4.00;;;;;;;;4998868;28;51144;-62
2022/07/29 09:00:41;;;;;;;;;7.00;6.00;;;;;;;;4998565;28;51079;-62
2022/07/29 09:03:08;;;;;;;;;6.00;5.33;;;;;;;;4985490;28;52040;-62
2022/07/29 09:05:33;;;;;;;;;7.33;5.67;;;;;;;;5005378;28;51193;-62
2022/07/29 09:07:59;;;;;;;;;4.67;4.67;;;;;;;;5011215;28;51131;-62
2022/07/29 09:10:24;;;;;;;;;5.33;5.33;;;;;;;;5011162;28;51941;-62
2022/07/29 09:12:50;;;;;;;;;5.00;5.00;;;;;;;;5011323;28;51959;-62
2022/07/29 09:15:15;;;;;;;;;3.00;3.00;;;;;;;;5009244;28;51311;-62
2022/07/29 09:17:44;;;;;;;;;4.00;3.33;;;;;;;;5011624;28;53073;-62
2022/07/29 09:20:13;;;;;;;;;6.67;6.00;;;;;;;;5012153;28;51304;-62
2022/07/29 09:22:39;;;;;;;;;5.33;5.00;;;;;;;;5011317;28;52142;-62
2022/07/29 09:25:04;;;;;;;;;5.00;5.00;;;;;;;;5011198;28;51520;-62
2022/07/29 09:27:30;;;;;;;;;4.00;4.00;;;;;;;;5010571;28;51213;-61
2022/07/29 09:29:56;;;;;;;;;4.00;4.00;;;;;;;;5011545;28;51223;-62
2022/07/29 09:32:22;;;;;;;;;5.67;5.33;;;;;;;;4999006;28;52442;-62
2022/07/29 09:34:47;;;;;;;;;5.33;5.33;;;;;;;;5009887;28;51158;-61
2022/07/29 09:37:25;;;;;;;;;7.00;5.00;;;;;;;;5010913;28;52154;-61
2022/07/29 09:39:51;;;;;;;;;4.00;4.00;;;;;;;;5010523;28;51239;-61
2022/07/29 09:42:27;;;;;;;;;4.00;4.00;;;;;;;;5010746;28;51777;-62
2022/07/29 09:44:52;;;;;;;;;4.00;4.00;;;;;;;;5010249;28;51221;-62
2022/07/29 09:47:18;;;;;;;;;4.33;4.00;;;;;;;;5010969;28;51176;-62
2022/07/29 09:49:49;;;;;;;;;4.00;4.00;;;;;;;;5010319;28;51389;-62
2022/07/29 09:52:14;;;;;;;;;5.00;5.00;;;;;;;;5011075;28;52312;-62
2022/07/29 09:54:40;;;;;;;;;4.67;4.67;;;;;;;;5010650;28;51078;-62
2022/07/29 09:57:12;;;;;;;;;7.00;6.33;;;;;;;;5010246;28;51185;-62
2022/07/29 09:59:38;;;;;;;;;5.33;5.33;;;;;;;;5010316;28;51127;-61
2022/07/29 10:02:11;;;;;;;;;5.00;5.00;;;;;;;;5009097;28;52583;-61
2022/07/29 10:04:38;;;;;;;;;3.00;3.00;;;;;;;;5009447;28;51244;-61
2022/07/29 10:07:05;;;;;;;;;5.00;4.67;;;;;;;;5008188;28;52510;-61
2022/07/29 10:09:30;;;;;;;;;5.67;4.67;;;;;;;;5008695;28;52381;-61
2022/07/29 10:12:14;;;;;;;;;6.00;6.00;;;;;;;;5007544;28;52293;-62
2022/07/29 10:14:39;;;;;;;;;4.00;4.00;;;;;;;;5009172;28;51769;-62
2022/07/29 10:17:05;;;;;;;;;7.00;6.00;;;;;;;;5008383;28;51447;-61
2022/07/29 10:19:31;;;;;;;;;3.33;3.33;;;;;;;;5008975;28;51148;-61
2022/07/29 10:22:01;;;;;;;;;6.67;6.67;;;;;;;;5008510;28;51429;-62
2022/07/29 10:24:27;;;;;;;;;6.00;6.00;;;;;;;;5009845;28;52344;-62
2022/07/29 10:26:54;;;;;;;;;6.00;5.33;;;;;;;;5008941;28;51272;-61
2022/07/29 10:29:19;;;;;;;;;7.00;7.00;;;;;;;;5008074;28;51127;-62
2022/07/29 10:31:53;;;;;;;;;6.00;6.00;;;;;;;;5008024;28;52244;-62
2022/07/29 10:34:46;;;;;;;;;7.33;7.33;;;;;;;;5026334;28;51232;-61
2022/07/29 10:37:18;;;;;;;;;8.33;7.67;;;;;;;;5009694;28;51140;-62
2022/07/29 10:39:46;;;;;;;;;4.33;4.33;;;;;;;;5026414;28;51340;-61
2022/07/29 10:42:17;;;;;;;;;3.33;3.33;;;;;;;;5026111;28;51121;-61
2022/07/29 10:44:43;;;;;;;;;6.67;6.00;;;;;;;;5010153;28;51305;-62
2022/07/29 10:47:18;;;;;;;;;4.00;4.00;;;;;;;;5026402;28;51278;-62
2022/07/29 10:49:54;;;;;;;;;4.33;4.33;;;;;;;;5026756;28;51249;-61
2022/07/29 10:52:20;;;;;;;;;4.00;4.00;;;;;;;;5026411;28;51123;-61
2022/07/29 10:54:47;;;;;;;;;5.33;5.33;;;;;;;;5026902;28;51328;-60
2022/07/29 10:57:14;;;;;;;;;6.00;6.00;;;;;;;;5027290;28;51254;-61
2022/07/29 10:59:39;;;;;;;;;6.33;6.00;;;;;;;;5027795;28;51188;-62
2022/07/29 11:04:59;;;;;;;;;6.00;6.00;;;;;;;;4997310;28;51261;-62
2022/07/29 11:07:25;;;;;;;;;6.00;6.00;;;;;;;;5027553;28;51393;-62
2022/07/29 11:10:09;;;;;;;;;3.67;3.67;;;;;;;;5031819;28;51215;-62
2022/07/29 11:12:37;;;;;;;;;5.00;5.00;;;;;;;;5030756;28;53164;-60
2022/07/29 11:15:06;;;;;;;;;4.33;4.33;;;;;;;;5031163;28;51308;-61
2022/07/29 11:17:50;;;;;;;;;4.00;4.00;;;;;;;;5030226;28;51085;-61
2022/07/29 11:20:34;;;;;;;;;6.00;5.00;;;;;;;;5030296;28;51371;-60
2022/07/29 11:23:00;;;;;;;;;4.33;4.00;;;;;;;;5029775;28;51943;-61
2022/07/29 11:25:25;;;;;;;;;7.33;7.33;;;;;;;;5029132;28;51223;-61
2022/07/29 11:28:07;;;;;;;;;7.33;7.33;;;;;;;;5029773;28;51122;-61
2022/07/29 11:30:53;;;;;;;;;6.00;6.00;;;;;;;;5030188;28;51161;-61
2022/07/29 11:33:31;;;;;;;;;7.00;6.00;;;;;;;;5029359;28;51069;-61
2022/07/29 11:36:13;;;;;;;;;4.33;4.33;;;;;;;;5029052;28;51117;-61
2022/07/29 11:38:38;;;;;;;;;4.33;4.33;;;;;;;;5029371;28;51131;-61
2022/07/29 11:41:22;;;;;;;;;6.00;6.00;;;;;;;;5029605;28;51357;-61
2022/07/29 11:43:48;;;;;;;;;5.00;5.00;;;;;;;;5029153;28;51916;-61
2022/07/29 11:46:14;;;;;;;;;6.00;6.00;;;;;;;;5029865;28;51219;-62
2022/07/29 11:48:43;;;;;;;;;7.00;7.00;;;;;;;;5028540;28;51492;-60
2022/07/29 11:51:10;;;;;;;;;4.00;4.00;;;;;;;;5029552;28;51259;-60
2022/07/29 11:53:35;;;;;;;;;5.67;5.67;;;;;;;;5028238;28;51885;-61
2022/07/29 11:56:00;;;;;;;;;5.00;5.00;;;;;;;;5013314;28;51168;-61
2022/07/29 11:58:28;;;;;;;;;3.00;3.00;;;;;;;;5029531;28;51462;-61
2022/07/29 12:00:53;;;;;;;;;4.33;4.33;;;;;;;;5029468;28;51250;-61
2022/07/29 12:03:25;;;;;;;;;7.67;7.00;;;;;;;;5028541;28;51807;-61
2022/07/29 12:05:51;;;;;;;;;6.33;6.00;;;;;;;;5029114;28;52278;-61
2022/07/29 12:08:21;;;;;;;;;8.67;7.67;;;;;;;;5029220;28;51108;-61
2022/07/29 12:10:47;;;;;;;;;6.00;6.00;;;;;;;;5014079;28;51528;-61
2022/07/29 12:13:13;;;;;;;;;7.33;6.33;;;;;;;;5028761;28;52473;-61
2022/07/29 12:15:39;;;;;;;;;7.67;7.00;;;;;;;;5028713;28;51188;-60
2022/07/29 12:18:14;;;;;;;;;5.00;5.00;;;;;;;;5028772;28;51072;-61
2022/07/29 12:20:40;;;;;;;;;5.00;5.00;;;;;;;;5027834;28;51436;-61
2022/07/29 12:23:07;;;;;;;;;5.00;5.00;;;;;;;;5028816;28;51793;-61
2022/07/29 12:25:33;;;;;;;;;4.33;4.33;;;;;;;;5028620;28;51194;-61
2022/07/29 12:28:03;;;;;;;;;5.00;4.00;;;;;;;;5028407;28;52519;-61
2022/07/29 12:30:36;;;;;;;;;11.00;11.00;;;;;;;;5028942;28;51113;-61
2022/07/29 12:33:01;;;;;;;;;4.00;4.00;;;;;;;;5027953;28;52480;-60
2022/07/29 12:35:26;;;;;;;;;4.00;4.00;;;;;;;;5028827;28;51219;-60
2022/07/29 12:37:52;;;;;;;;;4.00;3.67;;;;;;;;5028361;28;51762;-61
2022/07/29 12:40:18;;;;;;;;;4.00;3.67;;;;;;;;5028968;28;51154;-61
2022/07/29 12:43:01;;;;;;;;;9.33;7.33;;;;;;;;5028487;28;51273;-61
2022/07/29 12:45:30;;;;;;;;;6.33;6.00;;;;;;;;5012216;28;51167;-60
2022/07/29 12:47:56;;;;;;;;;6.00;5.00;;;;;;;;5012077;28;51165;-61
2022/07/29 12:50:21;;;;;;;;;6.00;6.00;;;;;;;;5028586;28;51077;-59
2022/07/29 12:52:47;;;;;;;;;5.00;5.00;;;;;;;;5027880;28;51919;-62
2022/07/29 12:55:12;;;;;;;;;4.00;4.00;;;;;;;;5012506;28;51161;-60
2022/07/29 12:57:46;;;;;;;;;3.67;3.67;;;;;;;;5027831;28;51176;-61
2022/07/29 13:00:12;;;;;;;;;5.67;5.00;;;;;;;;5028326;28;51399;-62
2022/07/29 13:02:38;;;;;;;;;4.00;4.00;;;;;;;;5027021;28;51813;-62
2022/07/29 13:05:05;;;;;;;;;4.67;4.00;;;;;;;;5028022;28;51894;-62
2022/07/29 13:07:32;;;;;;;;;4.67;4.67;;;;;;;;5027911;28;51164;-61
2022/07/29 13:10:29;;;;;;;;;6.00;5.00;;;;;;;;5028149;28;51124;-61
2022/07/29 13:13:09;;;;;;;;;6.00;6.00;;;;;;;;4984092;28;52040;-60
2022/07/29 13:15:35;;;;;;;;;4.67;4.67;;;;;;;;5027434;28;51083;-62
2022/07/29 13:18:00;;;;;;;;;3.33;3.33;;;;;;;;5027768;28;51295;-61
2022/07/29 13:20:29;;;;;;;;;4.67;4.00;;;;;;;;5028136;28;51123;-60
2022/07/29 13:22:54;;;;;;;;;5.00;5.00;;;;;;;;5027740;28;51913;-61
2022/07/29 13:25:33;;;;;;;;;7.00;6.33;;;;;;;;5027427;28;51143;-61
2022/07/29 13:27:59;;;;;;;;;4.00;4.00;;;;;;;;5027217;28;51307;-61
2022/07/29 13:30:24;;;;;;;;;4.00;4.00;;;;;;;;5027331;28;51410;-61
2022/07/29 13:32:51;;;;;;;;;4.00;4.00;;;;;;;;5025930;28;51174;-61
2022/07/29 13:35:16;;;;;;;;;5.00;5.00;;;;;;;;5028067;28;51347;-60
2022/07/29 13:37:42;;;;;;;;;8.33;7.33;;;;;;;;5011642;28;51139;-60
2022/07/29 13:40:08;;;;;;;;;4.33;4.33;;;;;;;;5028311;28;51341;-62
2022/07/29 13:42:33;;;;;;;;;5.00;5.00;;;;;;;;5027490;28;52293;-61
2022/07/29 13:44:59;;;;;;;;;5.00;4.00;;;;;;;;5027480;28;51154;-61
2022/07/29 13:47:24;;;;;;;;;3.00;3.00;;;;;;;;5027863;28;51152;-61
2022/07/29 13:49:49;;;;;;;;;5.00;5.00;;;;;;;;5026982;28;51167;-61
2022/07/29 13:52:15;;;;;;;;;4.00;4.00;;;;;;;;5027082;28;52178;-61
2022/07/29 13:54:40;;;;;;;;;4.00;3.33;;;;;;;;5026877;28;51387;-61
2022/07/29 13:57:07;;;;;;;;;6.00;5.00;;;;;;;;5027262;28;51126;-60
2022/07/29 13:59:32;;;;;;;;;4.00;4.00;;;;;;;;5026866;28;51947;-60
2022/07/29 14:01:57;;;;;;;;;4.00;4.00;;;;;;;;5026138;28;51042;-60
2022/07/29 14:04:23;;;;;;;;;5.00;5.00;;;;;;;;5026395;28;51316;-60
2022/07/29 14:06:48;;;;;;;;;5.33;5.33;;;;;;;;5026790;28;51065;-60
2022/07/29 14:09:13;;;;;;;;;2.67;2.67;;;;;;;;5026951;28;51251;-61
2022/07/29 14:11:39;;;;;;;;;4.00;4.00;;;;;;;;5026923;28;52194;-61
2022/07/29 14:14:04;;;;;;;;;4.00;4.00;;;;;;;;5026801;28;51262;-60
2022/07/29 14:16:30;;;;;;;;;8.00;8.00;;;;;;;;5025416;28;51115;-61
2022/07/29 14:18:55;;;;;;;;;4.00;4.00;;;;;;;;5026339;28;51227;-61
2022/07/29 14:21:20;;;;;;;;;6.67;5.67;;;;;;;;5026577;28;51116;-61
2022/07/29 14:23:45;;;;;;;;;5.00;4.67;;;;;;;;5027378;28;51289;-61
2022/07/29 14:26:10;;;;;;;;;4.00;4.00;;;;;;;;5027022;28;51338;-60
2022/07/29 14:28:36;;;;;;;;;6.00;5.67;;;;;;;;5026879;28;51896;-60
2022/07/29 14:31:01;;;;;;;;;6.00;6.00;;;;;;;;5026573;28;51193;-61
2022/07/29 14:33:26;;;;;;;;;6.00;6.00;;;;;;;;5026368;28;51345;-61
2022/07/29 14:35:52;;;;;;;;;7.67;7.67;;;;;;;;5026894;28;51044;-61
2022/07/29 14:38:17;;;;;;;;;4.33;4.33;;;;;;;;5026759;28;52673;-60
2022/07/29 14:40:42;;;;;;;;;5.67;5.67;;;;;;;;5026216;28;53035;-61
2022/07/29 14:43:07;;;;;;;;;5.00;5.00;;;;;;;;5025824;28;51199;-61
2022/07/29 14:45:33;;;;;;;;;7.67;6.67;;;;;;;;5026276;28;51198;-61
2022/07/29 14:47:59;;;;;;;;;5.33;5.00;;;;;;;;5026032;28;51234;-61